sensor_id;sensor_type;location;lat;lon;timestamp;pressure;altitude;pressure_sealevel;temperature;humidity
37174;BME280;23068;51.430;5.540;2023-02-13T00:05:42;103661.00;;;5.36;100.00
37174;BME280;23068;51.430;5.540;2023-02-13T00:11:42;103662.72;;;5.38;100.00
37174;BME280;23068;51.430;5.540;2023-02-13T00:17:43;103658.44;;;5.31;100.00
37174;BME280;23068;51.430;5.540;2023-02-13T00:23:43;103647.94;;;5.25;100.00
37174;BME280;23068;51.430;5.540;2023-02-13T00:29:44;103646.31;;;5.18;100.00
37174;BME280;23068;51.430;5.540;2023-02-13T00:35:44;103650.69;;;5.19;100.00
37174;BME280;23068;51.430;5.540;2023-02-13T00:41:44;103650.00;;;5.09;100.00
37174;BME280;23068;51.430;5.540;2023-02-13T00:47:45;103646.63;;;5.00;100.00
37174;BME280;23068;51.430;5.540;2023-02-13T00:53:45;103648.75;;;4.79;100.00
37174;BME280;23068;51.430;5.540;2023-02-13T00:59:45;103649.97;;;4.61;100.00
37174;BME280;23068;51.430;5.540;2023-02-13T01:05:45;103650.38;;;4.35;100.00
37174;BME280;23068;51.430;5.540;2023-02-13T01:11:46;103654.16;;;4.21;100.00
37174;BME280;23068;51.430;5.540;2023-02-13T01:17:46;103659.59;;;4.10;100.00
37174;BME280;23068;51.430;5.540;2023-02-13T01:23:47;103657.22;;;3.89;100.00
37174;BME280;23068;51.430;5.540;2023-02-13T01:29:47;103650.94;;;3.99;100.00
37174;BME280;23068;51.430;5.540;2023-02-13T01:35:48;103656.38;;;3.90;100.00
37174;BME280;23068;51.430;5.540;2023-02-13T01:41:48;103646.69;;;3.85;100.00
37174;BME280;23068;51.430;5.540;2023-02-13T01:47:52;103653.81;;;3.80;100.00
37174;BME280;23068;51.430;5.540;2023-02-13T01:54:00;103655.03;;;3.55;100.00
37174;BME280;23068;51.430;5.540;2023-02-13T02:00:06;103650.84;;;3.36;100.00
37174;BME280;23068;51.430;5.540;2023-02-13T02:06:10;103646.44;;;3.33;100.00
37174;BME280;23068;51.430;5.540;2023-02-13T02:12:28;103637.63;;;3.33;100.00
37174;BME280;23068;51.430;5.540;2023-02-13T02:18:30;103648.13;;;3.43;100.00
37174;BME280;23068;51.430;5.540;2023-02-13T02:44:06;103642.28;;;3.11;100.00
37174;BME280;23068;51.430;5.540;2023-02-13T02:56:45;103632.94;;;2.79;100.00
37174;BME280;23068;51.430;5.540;2023-02-13T03:02:47;103631.25;;;2.67;100.00
37174;BME280;23068;51.430;5.540;2023-02-13T03:08:57;103630.41;;;2.62;100.00
37174;BME280;23068;51.430;5.540;2023-02-13T03:14:59;103625.25;;;2.48;100.00
37174;BME280;23068;51.430;5.540;2023-02-13T03:21:11;103625.31;;;2.44;100.00
37174;BME280;23068;51.430;5.540;2023-02-13T03:33:35;103621.81;;;2.39;100.00
37174;BME280;23068;51.430;5.540;2023-02-13T03:45:47;103623.72;;;2.18;100.00
37174;BME280;23068;51.430;5.540;2023-02-13T03:52:02;103624.66;;;2.07;100.00
37174;BME280;23068;51.430;5.540;2023-02-13T03:58:08;103635.25;;;2.05;100.00
37174;BME280;23068;51.430;5.540;2023-02-13T04:10:50;103643.31;;;1.81;100.00
37174;BME280;23068;51.430;5.540;2023-02-13T04:16:56;103638.94;;;1.77;100.00
37174;BME280;23068;51.430;5.540;2023-02-13T04:23:06;103632.81;;;1.65;100.00
37174;BME280;23068;51.430;5.540;2023-02-13T04:29:07;103637.22;;;1.70;100.00
37174;BME280;23068;51.430;5.540;2023-02-13T04:35:08;103631.09;;;1.61;100.00
37174;BME280;23068;51.430;5.540;2023-02-13T04:41:08;103618.78;;;1.57;100.00
37174;BME280;23068;51.430;5.540;2023-02-13T04:47:08;103625.00;;;1.44;100.00
37174;BME280;23068;51.430;5.540;2023-02-13T04:53:09;103621.50;;;1.47;100.00
37174;BME280;23068;51.430;5.540;2023-02-13T04:59:09;103613.56;;;1.39;100.00
37174;BME280;23068;51.430;5.540;2023-02-13T05:05:09;103622.41;;;1.29;100.00
37174;BME280;23068;51.430;5.540;2023-02-13T05:11:09;103614.53;;;1.26;100.00
37174;BME280;23068;51.430;5.540;2023-02-13T05:17:10;103618.06;;;1.16;100.00
37174;BME280;23068;51.430;5.540;2023-02-13T05:23:14;103616.34;;;1.12;100.00
37174;BME280;23068;51.430;5.540;2023-02-13T05:29:14;103620.72;;;1.14;100.00
37174;BME280;23068;51.430;5.540;2023-02-13T05:35:15;103615.47;;;0.99;100.00
37174;BME280;23068;51.430;5.540;2023-02-13T05:41:15;103627.78;;;0.88;100.00
37174;BME280;23068;51.430;5.540;2023-02-13T05:47:15;103627.78;;;0.89;100.00
37174;BME280;23068;51.430;5.540;2023-02-13T05:53:16;103628.69;;;0.79;100.00
37174;BME280;23068;51.430;5.540;2023-02-13T05:59:16;103621.63;;;0.93;100.00
37174;BME280;23068;51.430;5.540;2023-02-13T06:05:16;103619.91;;;0.74;100.00
37174;BME280;23068;51.430;5.540;2023-02-13T06:11:17;103620.78;;;0.65;100.00
37174;BME280;23068;51.430;5.540;2023-02-13T06:17:17;103614.63;;;0.66;100.00
37174;BME280;23068;51.430;5.540;2023-02-13T06:23:17;103614.63;;;0.66;100.00
37174;BME280;23068;51.430;5.540;2023-02-13T06:29:18;103616.41;;;0.60;100.00
37174;BME280;23068;51.430;5.540;2023-02-13T06:35:18;103616.41;;;0.46;100.00
37174;BME280;23068;51.430;5.540;2023-02-13T06:41:19;103624.28;;;0.41;100.00
37174;BME280;23068;51.430;5.540;2023-02-13T06:47:19;103632.22;;;0.50;100.00
37174;BME280;23068;51.430;5.540;2023-02-13T06:53:19;103630.44;;;0.60;100.00
37174;BME280;23068;51.430;5.540;2023-02-13T06:59:19;103630.47;;;0.57;100.00
37174;BME280;23068;51.430;5.540;2023-02-13T07:05:20;103632.19;;;0.61;100.00
37174;BME280;23068;51.430;5.540;2023-02-13T07:11:22;103649.75;;;0.79;100.00
37174;BME280;23068;51.430;5.540;2023-02-13T07:17:23;103662.03;;;0.75;100.00
37174;BME280;23068;51.430;5.540;2023-02-13T07:23:23;103657.66;;;0.59;100.00
37174;BME280;23068;51.430;5.540;2023-02-13T07:29:23;103655.03;;;0.53;100.00
37174;BME280;23068;51.430;5.540;2023-02-13T07:35:24;103660.31;;;0.65;100.00
37174;BME280;23068;51.430;5.540;2023-02-13T07:41:24;103655.03;;;0.80;100.00
37174;BME280;23068;51.430;5.540;2023-02-13T07:47:24;103655.88;;;0.99;100.00
37174;BME280;23068;51.430;5.540;2023-02-13T07:53:24;103657.66;;;0.94;100.00
37174;BME280;23068;51.430;5.540;2023-02-13T07:59:25;103655.88;;;0.89;100.00
37174;BME280;23068;51.430;5.540;2023-02-13T08:05:25;103662.91;;;1.03;100.00
37174;BME280;23068;51.430;5.540;2023-02-13T08:11:30;103666.38;;;1.30;100.00
37174;BME280;23068;51.430;5.540;2023-02-13T08:17:31;103674.22;;;1.51;100.00
37174;BME280;23068;51.430;5.540;2023-02-13T08:23:32;103678.59;;;1.61;100.00
37174;BME280;23068;51.430;5.540;2023-02-13T08:29:32;103676.00;;;1.43;100.00
37174;BME280;23068;51.430;5.540;2023-02-13T08:35:32;103692.63;;;1.68;100.00
37174;BME280;23068;51.430;5.540;2023-02-13T08:41:33;103695.16;;;1.96;100.00
37174;BME280;23068;51.430;5.540;2023-02-13T08:47:33;103708.31;;;2.03;100.00
37174;BME280;23068;51.430;5.540;2023-02-13T08:53:34;103706.44;;;2.25;100.00
37174;BME280;23068;51.430;5.540;2023-02-13T08:59:34;103706.19;;;2.62;100.00
37174;BME280;23068;51.430;5.540;2023-02-13T09:05:35;103703.53;;;2.66;100.00
37174;BME280;23068;51.430;5.540;2023-02-13T09:11:35;103697.03;;;3.04;100.00
37174;BME280;23068;51.430;5.540;2023-02-13T09:17:35;103701.06;;;3.42;100.00
37174;BME280;23068;51.430;5.540;2023-02-13T09:23:37;103692.84;;;3.66;100.00
37174;BME280;23068;51.430;5.540;2023-02-13T09:29:38;103696.50;;;4.22;100.00
37174;BME280;23068;51.430;5.540;2023-02-13T09:35:38;103688.53;;;4.82;100.00
37174;BME280;23068;51.430;5.540;2023-02-13T09:41:41;103663.13;;;5.17;100.00
37174;BME280;23068;51.430;5.540;2023-02-13T09:47:43;103655.50;;;5.45;100.00
37174;BME280;23068;51.430;5.540;2023-02-13T09:54:01;103650.81;;;6.01;100.00
37174;BME280;23068;51.430;5.540;2023-02-13T10:06:25;103637.13;;;6.55;100.00
37174;BME280;23068;51.430;5.540;2023-02-13T10:18:58;103638.59;;;7.33;100.00
37174;BME280;23068;51.430;5.540;2023-02-13T10:31:04;103623.59;;;7.60;100.00
37174;BME280;23068;51.430;5.540;2023-02-13T10:37:27;103625.38;;;7.89;100.00
37174;BME280;23068;51.430;5.540;2023-02-13T10:43:29;103622.41;;;7.98;100.00
37174;BME280;23068;51.430;5.540;2023-02-13T11:08:04;103603.91;;;8.75;100.00
37174;BME280;23068;51.430;5.540;2023-02-13T11:14:20;103590.88;;;8.92;100.00
37174;BME280;23068;51.430;5.540;2023-02-13T11:20:33;103577.22;;;9.25;100.00
37174;BME280;23068;51.430;5.540;2023-02-13T11:26:35;103573.19;;;9.37;100.00
37174;BME280;23068;51.430;5.540;2023-02-13T11:32:36;103561.22;;;9.70;100.00
37174;BME280;23068;51.430;5.540;2023-02-13T11:38:36;103547.72;;;10.17;100.00
37174;BME280;23068;51.430;5.540;2023-02-13T11:44:36;103544.16;;;10.38;100.00
37174;BME280;23068;51.430;5.540;2023-02-13T11:50:37;103533.03;;;10.27;100.00
37174;BME280;23068;51.430;5.540;2023-02-13T12:09:19;103513.25;;;11.11;100.00
37174;BME280;23068;51.430;5.540;2023-02-13T12:15:33;103510.34;;;11.53;100.00
